createdAt,value
2022-12-13T00:06:16.849Z,96.39
2022-12-13T00:16:24.541Z,96.57
2022-12-13T00:26:32.607Z,96.57
2022-12-13T00:36:38.091Z,96.55
2022-12-13T00:46:44.021Z,96.52
2022-12-13T00:56:51.281Z,96.45
2022-12-13T01:06:56.965Z,96.20
2022-12-13T01:17:02.831Z,96.42
2022-12-13T01:27:08.423Z,96.23
2022-12-13T01:37:13.885Z,96.13
2022-12-13T01:47:23.709Z,96.03
2022-12-13T01:57:29.217Z,95.78
2022-12-13T02:07:38.029Z,95.95
2022-12-13T02:18:04.163Z,95.93
2022-12-13T02:28:31.445Z,95.79
2022-12-13T02:38:46.898Z,95.62
2022-12-13T02:48:55.872Z,95.47
2022-12-13T02:59:04.457Z,95.33
2022-12-13T03:09:24.655Z,95.33
2022-12-13T03:19:30.333Z,95.32
2022-12-13T03:29:35.913Z,95.28
2022-12-13T03:39:41.478Z,95.07
2022-12-13T03:49:46.990Z,95.04
2022-12-13T03:59:59.965Z,94.73
2022-12-13T04:10:26.042Z,94.47
2022-12-13T04:20:32.128Z,94.08
2022-12-13T04:30:38.655Z,93.92
2022-12-13T04:40:44.202Z,93.69
2022-12-13T04:50:49.710Z,93.91
2022-12-13T05:00:55.355Z,93.56
2022-12-13T05:11:01.665Z,93.25
2022-12-13T05:21:09.998Z,92.73
2022-12-13T05:31:22.714Z,92.59
2022-12-13T05:41:33.337Z,92.45
2022-12-13T05:51:38.835Z,93.07
2022-12-13T06:01:44.352Z,92.96
2022-12-13T06:11:50.026Z,92.92
2022-12-13T06:21:56.654Z,92.96
2022-12-13T06:32:03.931Z,92.88
2022-12-13T06:42:21.869Z,92.68
2022-12-13T06:52:28.244Z,92.48
2022-12-13T07:02:34.009Z,92.09
2022-12-13T07:12:39.994Z,91.92
2022-12-13T07:22:48.002Z,91.82
2022-12-13T07:32:54.853Z,91.84
2022-12-13T07:43:00.462Z,92.04
2022-12-13T07:53:08.984Z,92.04
2022-12-13T08:03:25.545Z,91.84
2022-12-13T08:13:31.595Z,91.48
2022-12-13T08:23:37.999Z,91.28
2022-12-13T08:33:45.641Z,91.21
2022-12-13T08:43:51.778Z,90.85
2022-12-13T08:54:10.027Z,90.31
2022-12-13T09:04:16.948Z,90.15
2022-12-13T09:14:37.492Z,89.68
2022-12-13T09:24:50.973Z,89.53
2022-12-13T09:34:56.751Z,89.10
2022-12-13T09:45:05.068Z,88.94
2022-12-13T09:55:21.992Z,88.61
2022-12-13T10:05:35.691Z,88.52
2022-12-13T10:15:47.768Z,88.37
2022-12-13T10:26:02.793Z,88.10
2022-12-13T10:36:15.545Z,88.09
2022-12-13T10:46:25.924Z,88.38
2022-12-13T10:56:38.385Z,87.99
2022-12-13T11:06:46.457Z,87.92
2022-12-13T11:16:56.979Z,87.84
2022-12-13T11:27:09.487Z,87.95
2022-12-13T11:37:24.922Z,87.93
2022-12-13T11:47:51.658Z,87.99
2022-12-13T11:58:11.152Z,87.55
2022-12-13T12:08:32.471Z,86.90
2022-12-13T12:18:38.649Z,86.72
2022-12-13T12:29:02.918Z,86.90
2022-12-13T12:39:30.022Z,85.97
2022-12-13T12:50:04.135Z,85.68
2022-12-13T13:00:15.523Z,85.79
2022-12-13T13:10:26.858Z,85.68
2022-12-13T13:20:32.823Z,85.63
2022-12-13T13:31:16.111Z,85.53
2022-12-13T13:42:02.042Z,85.78
2022-12-13T13:52:27.409Z,86.01
2022-12-13T14:03:33.489Z,86.22
2022-12-13T14:14:22.890Z,86.51
2022-12-13T14:24:39.709Z,86.67
2022-12-13T14:34:47.253Z,86.93
2022-12-13T14:45:22.932Z,86.97
2022-12-13T14:55:32.075Z,87.19
2022-12-13T15:05:48.696Z,87.89
2022-12-13T15:16:00.145Z,88.18
2022-12-13T15:26:09.181Z,88.32
2022-12-13T15:36:18.677Z,88.38
2022-12-13T15:46:29.615Z,88.35
2022-12-13T15:56:37.139Z,88.28
2022-12-13T16:06:52.600Z,88.54
2022-12-13T16:16:59.248Z,88.47
2022-12-13T16:27:08.411Z,88.42
2022-12-13T16:37:25.555Z,88.57
2022-12-13T16:47:41.907Z,88.92
2022-12-13T16:57:59.861Z,89.17
2022-12-13T17:08:05.446Z,89.09
2022-12-13T17:18:10.145Z,89.27
2022-12-13T17:28:15.632Z,89.66
2022-12-13T17:38:46.485Z,90.21
2022-12-13T17:48:51.939Z,90.16
2022-12-13T17:58:57.429Z,90.20
2022-12-13T18:09:03.293Z,90.30
2022-12-13T18:19:11.855Z,90.74
2022-12-13T18:29:17.762Z,90.87
2022-12-13T18:39:23.540Z,91.22
2022-12-13T18:49:29.519Z,91.59
2022-12-13T18:59:35.033Z,91.91
2022-12-13T19:09:40.630Z,91.82
2022-12-13T19:19:48.443Z,92.00
2022-12-13T19:29:54.338Z,91.98
2022-12-13T19:40:00.489Z,91.84
2022-12-13T19:50:07.119Z,91.75
2022-12-13T20:00:14.739Z,92.10
2022-12-13T20:10:20.631Z,92.14
2022-12-13T20:20:40.846Z,92.05
2022-12-13T20:30:51.783Z,92.09
2022-12-13T20:40:59.497Z,92.09
2022-12-13T20:51:07.216Z,92.07
2022-12-13T21:01:16.951Z,91.95
2022-12-13T21:11:26.902Z,92.13
2022-12-13T21:21:32.624Z,92.18
2022-12-13T21:31:39.519Z,92.04
2022-12-13T21:41:46.508Z,92.03
2022-12-13T21:51:52.057Z,91.81
2022-12-13T22:02:22.894Z,91.92
2022-12-13T22:12:34.815Z,91.89
2022-12-13T22:22:42.446Z,91.87
2022-12-13T22:32:48.135Z,91.98
2022-12-13T22:42:53.693Z,92.09
2022-12-13T22:52:59.197Z,91.99
2022-12-13T23:03:04.756Z,91.95
2022-12-13T23:13:30.670Z,91.79
2022-12-13T23:23:59.190Z,91.93
2022-12-13T23:34:04.906Z,91.84
2022-12-13T23:44:11.268Z,91.82
2022-12-13T23:54:19.421Z,91.91
